Time;durP1;ratioP1;P1;durP2;ratioP2;P2;SDS_P1;SDS_P2;PMS_P1;PMS_P2;Temp;Humidity;BMP_temperature;BMP_pressure;BME280_temperature;BME280_humidity;BME280_pressure;Samples;Min_cycle;Max_cycle;Signal;HPM_P1;HPM_P2
2021/12/06 00:00:54;;;;;;;8.40;4.40;;;1.40;99.90;;;;;;4992944;28;20018;-69
2021/12/06 00:03:25;;;;;;;7.40;4.38;;;1.40;99.90;;;;;;4993248;28;20038;-69
2021/12/06 00:05:51;;;;;;;7.57;4.13;;;1.40;99.90;;;;;;4992383;28;20022;-69
2021/12/06 00:08:17;;;;;;;7.00;4.57;;;1.40;99.90;;;;;;4992717;28;20081;-68
2021/12/06 00:10:44;;;;;;;8.23;5.78;;;1.40;99.90;;;;;;4992774;28;20093;-69
2021/12/06 00:13:11;;;;;;;8.68;4.60;;;1.40;99.90;;;;;;4991691;28;20582;-68
2021/12/06 00:15:37;;;;;;;8.63;4.60;;;1.40;99.90;;;;;;4992377;28;20387;-68
2021/12/06 00:18:03;;;;;;;8.25;4.07;;;1.40;99.90;;;;;;4990675;28;20031;-68
2021/12/06 00:20:29;;;;;;;7.40;3.90;;;1.40;99.90;;;;;;4992984;28;20046;-69
2021/12/06 00:22:54;;;;;;;8.48;4.20;;;1.40;99.90;;;;;;4991563;28;20482;-69
2021/12/06 00:25:21;;;;;;;7.85;4.40;;;1.40;99.90;;;;;;4992538;28;20032;-69
2021/12/06 00:27:47;;;;;;;11.15;4.75;;;1.40;99.90;;;;;;4992381;28;20104;-69
2021/12/06 00:30:16;;;;;;;9.23;4.93;;;1.40;99.90;;;;;;4991670;28;20476;-69
2021/12/06 00:32:42;;;;;;;7.75;5.47;;;1.40;99.90;;;;;;4992524;28;20029;-69
2021/12/06 00:35:13;;;;;;;8.40;5.75;;;1.40;99.90;;;;;;4991794;28;20511;-69
2021/12/06 00:37:52;;;;;;;9.35;5.28;;;1.50;99.90;;;;;;4992244;28;20026;-68
2021/12/06 00:40:18;;;;;;;6.68;4.78;;;1.50;99.90;;;;;;4992744;28;20494;-69
2021/12/06 00:42:44;;;;;;;8.35;4.85;;;1.50;99.90;;;;;;4992478;28;20066;-69
2021/12/06 00:45:10;;;;;;;6.97;5.00;;;1.50;99.90;;;;;;4991456;28;20144;-69
2021/12/06 00:47:36;;;;;;;9.00;4.68;;;1.50;99.90;;;;;;4992264;28;20031;-69
2021/12/06 00:50:06;;;;;;;8.85;5.05;;;1.50;99.90;;;;;;4991377;28;20033;-69
2021/12/06 00:52:32;;;;;;;8.05;4.80;;;1.50;99.90;;;;;;4992137;28;20026;-68
2021/12/06 00:54:58;;;;;;;7.40;4.82;;;1.50;99.90;;;;;;4991802;28;20036;-68
2021/12/06 00:57:24;;;;;;;9.85;5.68;;;1.50;99.90;;;;;;4992158;28;20109;-69
2021/12/06 00:59:50;;;;;;;11.65;6.13;;;1.50;99.90;;;;;;5010826;28;20033;-69
2021/12/06 01:02:17;;;;;;;11.73;5.68;;;1.50;99.90;;;;;;5016209;28;20026;-69
2021/12/06 01:04:45;;;;;;;10.38;5.80;;;1.50;99.90;;;;;;5016028;28;20030;-68
2021/12/06 01:07:12;;;;;;;11.98;6.28;;;1.50;99.90;;;;;;5014755;28;20101;-68
2021/12/06 01:09:37;;;;;;;10.15;6.07;;;1.50;99.90;;;;;;5015520;28;20069;-68
2021/12/06 01:12:04;;;;;;;12.45;6.35;;;1.50;99.90;;;;;;5014619;28;20021;-68
2021/12/06 01:14:30;;;;;;;9.93;6.97;;;1.60;99.90;;;;;;5014589;28;20072;-68
2021/12/06 01:16:56;;;;;;;11.20;6.60;;;1.50;99.90;;;;;;5014845;28;20057;-69
2021/12/06 01:19:27;;;;;;;11.63;7.28;;;1.50;99.90;;;;;;5015397;28;20030;-69
2021/12/06 01:24:44;;;;;;;9.00;6.25;;;1.60;99.90;;;;;;5015083;28;20041;-68
2021/12/06 01:28:18;;;;;;;9.18;6.38;;;1.50;99.90;;;;;;5014453;28;20056;-69
2021/12/06 01:40:27;;;;;;;15.15;9.07;;;1.50;99.90;;;;;;5015035;28;20032;-69
2021/12/06 01:42:53;;;;;;;16.15;9.27;;;1.50;99.90;;;;;;5014669;28;20034;-70
2021/12/06 01:45:19;;;;;;;14.27;9.25;;;1.50;99.90;;;;;;5014751;28;20525;-68
2021/12/06 01:47:46;;;;;;;17.17;9.25;;;1.50;99.90;;;;;;5015116;28;20030;-68
2021/12/06 01:50:23;;;;;;;14.60;9.48;;;1.60;99.90;;;;;;5013992;28;20101;-68
2021/12/06 01:52:57;;;;;;;16.92;9.90;;;1.60;99.90;;;;;;5014554;28;20540;-68
2021/12/06 01:55:29;;;;;;;15.35;9.77;;;1.60;99.90;;;;;;5014853;28;20030;-68
2021/12/06 01:57:56;;;;;;;18.08;9.95;;;1.60;99.90;;;;;;5012469;28;20090;-69
2021/12/06 02:00:44;;;;;;;16.95;10.05;;;1.60;99.90;;;;;;4994900;28;20490;-70
2021/12/06 02:03:09;;;;;;;19.98;9.23;;;1.50;99.90;;;;;;4994296;28;20030;-68
2021/12/06 02:05:36;;;;;;;18.13;9.98;;;1.60;99.90;;;;;;4994972;28;20026;-69
2021/12/06 02:08:02;;;;;;;17.15;9.98;;;1.50;99.90;;;;;;4994216;28;20022;-69
2021/12/06 02:10:28;;;;;;;14.60;9.30;;;1.60;99.90;;;;;;4994396;28;20077;-68
2021/12/06 02:12:55;;;;;;;14.20;10.07;;;1.60;99.90;;;;;;4994343;28;20042;-69
2021/12/06 02:17:56;;;;;;;15.52;9.82;;;1.50;99.90;;;;;;4994611;28;20035;-70
2021/12/06 02:20:26;;;;;;;15.60;9.23;;;1.50;99.90;;;;;;4995000;28;20088;-69
2021/12/06 02:22:52;;;;;;;;;;;1.50;99.90;;;;;;4995043;28;20105;-69
2021/12/06 02:25:19;;;;;;;13.02;8.98;;;1.50;99.90;;;;;;4993871;28;20306;-69
2021/12/06 02:27:47;;;;;;;14.93;9.85;;;1.50;99.90;;;;;;4994558;28;20352;-69
2021/12/06 02:30:15;;;;;;;14.73;11.10;;;1.50;99.90;;;;;;4993829;28;20084;-70
2021/12/06 02:32:41;;;;;;;19.77;11.70;;;1.50;99.90;;;;;;4994598;28;20030;-69
2021/12/06 02:35:12;;;;;;;13.82;10.73;;;1.50;99.90;;;;;;4993654;28;20038;-69
2021/12/06 02:37:38;;;;;;;18.52;11.15;;;1.40;99.90;;;;;;4994572;28;20033;-69
2021/12/06 02:40:09;;;;;;;18.17;12.85;;;1.40;99.90;;;;;;4993161;28;20127;-69
2021/12/06 02:42:36;;;;;;;17.40;12.13;;;1.40;99.90;;;;;;4994578;28;20577;-69
2021/12/06 02:45:03;;;;;;;17.40;12.10;;;1.50;99.90;;;;;;4992988;28;20138;-69
2021/12/06 02:47:28;;;;;;;18.75;11.77;;;1.50;99.90;;;;;;4992972;28;20030;-69
2021/12/06 02:49:54;;;;;;;17.58;12.75;;;1.40;99.90;;;;;;4992550;28;20407;-69
2021/12/06 02:52:20;;;;;;;22.08;12.65;;;1.50;99.90;;;;;;4992413;28;20037;-69
2021/12/06 02:54:54;;;;;;;20.55;13.88;;;1.50;99.90;;;;;;4993189;28;20490;-69
2021/12/06 02:57:31;;;;;;;19.27;13.15;;;1.50;99.90;;;;;;4992723;28;20036;-69
2021/12/06 02:59:57;;;;;;;17.80;12.63;;;1.50;99.90;;;;;;5010267;28;20049;-70
2021/12/06 03:02:22;;;;;;;18.52;12.40;;;1.50;99.90;;;;;;5012592;28;20029;-69
2021/12/06 03:04:48;;;;;;;21.45;11.80;;;1.50;99.90;;;;;;5012510;28;20097;-69
2021/12/06 03:07:20;;;;;;;19.95;12.98;;;1.60;99.90;;;;;;5011865;28;20057;-69
2021/12/06 03:09:50;;;;;;;18.67;12.95;;;1.60;99.90;;;;;;5012428;28;20029;-69
2021/12/06 03:12:19;;;;;;;21.95;13.65;;;1.60;99.90;;;;;;5011509;28;20040;-69
2021/12/06 03:14:49;;;;;;;18.58;12.57;;;1.60;99.90;;;;;;5013380;28;20029;-69
2021/12/06 03:17:17;;;;;;;18.73;13.48;;;1.70;99.90;;;;;;5010410;28;20656;-69
2021/12/06 03:19:43;;;;;;;20.00;11.57;;;1.70;99.90;;;;;;5012194;28;20030;-69
2021/12/06 03:22:11;;;;;;;18.70;13.05;;;1.80;99.90;;;;;;5010679;28;20062;-69
2021/12/06 03:24:38;;;;;;;18.67;12.88;;;1.90;99.90;;;;;;5012251;28;20026;-69
2021/12/06 03:27:04;;;;;;;19.48;12.85;;;1.90;99.90;;;;;;5011050;28;20468;-69
2021/12/06 03:29:31;;;;;;;19.10;12.02;;;1.90;99.90;;;;;;5012098;28;20029;-69
2021/12/06 03:31:57;;;;;;;19.48;12.90;;;1.90;99.90;;;;;;5011466;28;20026;-69
2021/12/06 03:34:26;;;;;;;20.25;13.43;;;1.90;99.90;;;;;;5011936;28;20536;-69
2021/12/06 03:36:55;;;;;;;19.40;14.95;;;1.80;99.90;;;;;;5010889;28;20472;-69
2021/12/06 03:39:28;;;;;;;18.92;14.65;;;1.80;99.90;;;;;;5011542;28;20065;-69
2021/12/06 03:41:57;;;;;;;25.70;17.40;;;1.80;99.90;;;;;;5012012;28;20113;-69
2021/12/06 03:44:23;;;;;;;22.67;15.65;;;1.80;99.90;;;;;;5011631;28;20034;-70
2021/12/06 03:46:58;;;;;;;22.48;16.63;;;1.80;99.90;;;;;;4974444;28;1097621;-69
2021/12/06 03:49:23;;;;;;;24.17;16.63;;;1.90;99.90;;;;;;5012437;28;20049;-69
2021/12/06 03:51:49;;;;;;;23.42;17.35;;;1.80;99.90;;;;;;5012537;28;20467;-69
2021/12/06 03:54:20;;;;;;;25.65;17.35;;;1.90;99.90;;;;;;5011591;28;20037;-69
2021/12/06 03:56:46;;;;;;;21.20;16.13;;;1.90;99.90;;;;;;5012546;28;20036;-69
2021/12/06 03:59:12;;;;;;;20.17;16.25;;;2.00;99.90;;;;;;4999805;28;20026;-69
2021/12/06 04:01:39;;;;;;;21.77;16.35;;;2.00;99.90;;;;;;4992458;28;20505;-69
2021/12/06 04:04:05;;;;;;;21.73;16.77;;;2.00;99.90;;;;;;4992252;28;20030;-69
2021/12/06 04:06:32;;;;;;;25.60;17.90;;;2.10;99.90;;;;;;4992733;28;20022;-70
2021/12/06 04:08:57;;;;;;;23.40;17.35;;;2.00;99.90;;;;;;4992634;28;20142;-70
2021/12/06 04:11:23;;;;;;;26.25;19.65;;;2.00;99.90;;;;;;4992938;28;20484;-70
2021/12/06 04:13:49;;;;;;;24.85;19.15;;;2.00;99.90;;;;;;4992821;28;20045;-70
2021/12/06 04:16:16;;;;;;;28.10;20.65;;;1.90;99.90;;;;;;4992349;28;20102;-70
2021/12/06 04:18:41;;;;;;;30.20;21.77;;;1.90;99.90;;;;;;4992729;28;20026;-69
2021/12/06 04:21:09;;;;;;;29.65;21.58;;;1.90;99.90;;;;;;4991642;28;20030;-70
2021/12/06 04:23:35;;;;;;;36.05;21.88;;;1.90;99.90;;;;;;4992789;28;20029;-69
2021/12/06 04:26:01;;;;;;;32.92;23.08;;;1.90;99.90;;;;;;4992279;28;20372;-69
2021/12/06 04:28:29;;;;;;;36.33;24.52;;;1.90;99.90;;;;;;4995047;28;20113;-69
2021/12/06 04:30:55;;;;;;;36.25;24.35;;;2.00;99.90;;;;;;4999503;28;20117;-69
2021/12/06 04:33:20;;;;;;;33.38;22.98;;;1.90;99.90;;;;;;4993057;28;20118;-72
2021/12/06 04:35:47;;;;;;;30.15;21.00;;;1.90;99.90;;;;;;4993128;28;20086;-69
2021/12/06 04:38:13;;;;;;;34.35;22.95;;;2.00;99.90;;;;;;4996195;28;20037;-69
2021/12/06 04:40:39;;;;;;;33.97;21.98;;;2.00;99.90;;;;;;5004027;28;20459;-69
2021/12/06 04:43:05;;;;;;;31.73;22.38;;;2.10;99.90;;;;;;5016118;28;20071;-69
2021/12/06 04:45:31;;;;;;;31.67;21.77;;;2.10;99.90;;;;;;5016507;28;20053;-69
2021/12/06 04:47:57;;;;;;;29.50;20.88;;;2.00;99.90;;;;;;4994337;28;20132;-69
2021/12/06 04:50:26;;;;;;;32.67;22.15;;;2.00;99.90;;;;;;4991599;28;20479;-69
2021/12/06 04:52:55;;;;;;;31.03;21.60;;;2.10;99.90;;;;;;4992452;28;20034;-69
2021/12/06 04:55:30;;;;;;;31.35;21.90;;;2.00;99.90;;;;;;4991159;28;20034;-69
2021/12/06 04:57:55;;;;;;;36.47;24.17;;;2.00;99.90;;;;;;4993992;28;20041;-69
2021/12/06 05:00:30;;;;;;;38.10;24.75;;;2.00;99.90;;;;;;5011095;28;20034;-69
2021/12/06 05:02:56;;;;;;;29.98;21.40;;;2.00;99.90;;;;;;5011918;28;20387;-69
2021/12/06 05:05:29;;;;;;;32.90;22.25;;;1.90;99.90;;;;;;5011518;28;20026;-69
2021/12/06 05:08:01;;;;;;;33.00;23.63;;;1.90;99.90;;;;;;5011979;28;20026;-69
2021/12/06 05:10:27;;;;;;;38.95;24.60;;;1.90;99.90;;;;;;5011340;28;20124;-70
2021/12/06 05:12:53;;;;;;;37.58;24.52;;;1.90;99.90;;;;;;5011142;28;20066;-69
2021/12/06 05:15:19;;;;;;;35.17;23.75;;;1.90;99.90;;;;;;5010734;28;20888;-70
2021/12/06 05:17:44;;;;;;;34.63;23.55;;;1.90;99.90;;;;;;5011969;28;20037;-69
2021/12/06 05:20:12;;;;;;;36.10;24.00;;;1.90;99.90;;;;;;5011020;28;20030;-69
2021/12/06 05:22:38;;;;;;;33.25;23.10;;;1.90;99.90;;;;;;5011567;28;20030;-70
2021/12/06 05:25:05;;;;;;;39.25;24.42;;;1.90;99.90;;;;;;5010727;28;20084;-70
2021/12/06 05:27:31;;;;;;;36.60;24.40;;;2.00;99.90;;;;;;5011750;28;20030;-69
2021/12/06 05:30:00;;;;;;;41.25;25.42;;;1.90;99.90;;;;;;5011472;28;20028;-69
2021/12/06 05:32:30;;;;;;;38.55;24.48;;;2.00;99.90;;;;;;5011286;28;20034;-69
2021/12/06 05:35:02;;;;;;;38.42;25.52;;;2.00;99.90;;;;;;5011558;28;20045;-70
2021/12/06 05:37:28;;;;;;;42.10;25.75;;;2.00;99.90;;;;;;5016012;28;20037;-69
2021/12/06 05:39:54;;;;;;;40.75;25.65;;;2.10;99.90;;;;;;5017781;28;20045;-69
2021/12/06 05:42:20;;;;;;;41.97;26.10;;;2.10;99.90;;;;;;5012475;28;20030;-70
2021/12/06 05:44:46;;;;;;;40.30;24.92;;;2.10;99.90;;;;;;5011482;28;20026;-69
2021/12/06 05:47:12;;;;;;;38.17;24.60;;;2.10;99.90;;;;;;5014238;28;20030;-69
2021/12/06 05:49:38;;;;;;;40.00;24.80;;;2.10;99.90;;;;;;5015107;28;20030;-70
2021/12/06 05:52:04;;;;;;;38.80;25.30;;;2.10;99.90;;;;;;5013884;28;20066;-70
2021/12/06 05:54:30;;;;;;;40.72;24.15;;;2.10;99.90;;;;;;5014890;28;20034;-70
2021/12/06 05:56:56;;;;;;;40.20;23.63;;;2.20;99.90;;;;;;5014194;28;20489;-69
2021/12/06 05:59:23;;;;;;;37.90;23.27;;;2.10;99.90;;;;;;5000459;28;20022;-70
2021/12/06 06:01:50;;;;;;;34.85;22.67;;;2.20;99.90;;;;;;4995230;28;20039;-68
2021/12/06 06:04:16;;;;;;;39.35;24.25;;;2.10;99.90;;;;;;4994076;28;20459;-68
2021/12/06 06:06:42;;;;;;;38.50;24.10;;;2.10;99.90;;;;;;4995168;28;20113;-68
2021/12/06 06:09:08;;;;;;;35.58;23.13;;;2.10;99.90;;;;;;4994243;28;20028;-68
2021/12/06 06:11:34;;;;;;;39.05;23.67;;;2.10;99.90;;;;;;4994817;28;20081;-68
2021/12/06 06:14:05;;;;;;;38.95;24.23;;;2.20;99.90;;;;;;4994682;28;20081;-68
2021/12/06 06:16:36;;;;;;;34.75;22.55;;;2.30;99.90;;;;;;4994754;28;20431;-68
2021/12/06 06:19:03;;;;;;;33.60;20.88;;;2.20;99.90;;;;;;4994704;28;20416;-69
2021/12/06 06:21:29;;;;;;;32.22;20.95;;;2.20;99.90;;;;;;4994793;28;20038;-70
2021/12/06 06:23:55;;;;;;;36.63;20.92;;;2.20;99.90;;;;;;4994786;28;20434;-69
2021/12/06 06:26:21;;;;;;;34.45;20.52;;;2.30;99.90;;;;;;4993756;28;20049;-69
2021/12/06 06:28:46;;;;;;;33.80;19.35;;;2.20;99.90;;;;;;4994393;28;20065;-69
2021/12/06 06:31:12;;;;;;;30.08;19.33;;;2.10;99.90;;;;;;4993711;28;20039;-69
2021/12/06 06:33:38;;;;;;;28.83;19.75;;;2.10;99.90;;;;;;4994604;28;20383;-69
2021/12/06 06:36:04;;;;;;;34.80;21.60;;;2.20;99.90;;;;;;4993916;28;20120;-72
2021/12/06 06:38:29;;;;;;;32.03;20.55;;;2.30;99.90;;;;;;4994410;28;20057;-70
2021/12/06 06:40:55;;;;;;;32.60;20.80;;;2.20;99.90;;;;;;4994432;28;20053;-69
2021/12/06 06:43:21;;;;;;;31.27;21.02;;;2.20;99.90;;;;;;4993887;28;20031;-67
2021/12/06 06:45:47;;;;;;;32.30;21.52;;;2.20;99.90;;;;;;4994288;28;20133;-70
2021/12/06 06:48:13;;;;;;;39.00;22.83;;;2.10;99.90;;;;;;4993481;28;20092;-69
2021/12/06 06:50:39;;;;;;;33.75;22.35;;;2.20;99.90;;;;;;4993910;28;20426;-68
2021/12/06 06:53:05;;;;;;;32.63;21.88;;;2.20;99.90;;;;;;4993373;28;20057;-69
2021/12/06 06:55:31;;;;;;;33.55;21.25;;;2.10;99.90;;;;;;4993616;28;20061;-69
2021/12/06 06:57:57;;;;;;;35.42;22.00;;;2.10;99.90;;;;;;4995194;28;20458;-68
2021/12/06 07:00:27;;;;;;;38.47;21.80;;;2.10;99.90;;;;;;5012839;28;20097;-68
2021/12/06 07:02:53;;;;;;;;;;;2.20;99.90;;;;;;5013651;28;20061;-68
2021/12/06 07:05:20;;;;;;;37.10;21.35;;;2.30;99.90;;;;;;5013667;28;19912;-67
2021/12/06 07:07:45;;;;;;;38.83;23.08;;;2.30;99.90;;;;;;5008809;28;20033;-72
2021/12/06 07:10:12;;;;;;;35.03;21.00;;;2.20;99.90;;;;;;5001212;28;20018;-71
2021/12/06 07:12:47;;;;;;;35.30;22.77;;;2.20;99.90;;;;;;5003177;28;20068;-70
2021/12/06 07:15:17;;;;;;;42.20;23.73;;;2.10;99.90;;;;;;5010179;28;20057;-68
2021/12/06 07:17:44;;;;;;;35.47;22.50;;;2.10;99.90;;;;;;5002007;28;20506;-69
2021/12/06 07:20:12;;;;;;;37.97;22.92;;;2.10;99.90;;;;;;4990913;28;20042;-69
2021/12/06 07:22:37;;;;;;;38.95;23.08;;;2.10;99.90;;;;;;4992493;28;20026;-67
2021/12/06 07:25:04;;;;;;;40.75;23.75;;;2.10;99.90;;;;;;4992457;28;20485;-68
2021/12/06 07:27:30;;;;;;;37.17;21.63;;;2.10;99.90;;;;;;4992791;28;20455;-67
2021/12/06 07:29:56;;;;;;;39.13;22.98;;;2.10;99.90;;;;;;4993004;28;20045;-69
2021/12/06 07:32:22;;;;;;;42.85;24.08;;;2.10;99.90;;;;;;4992239;28;20034;-70
2021/12/06 07:34:49;;;;;;;40.83;22.70;;;2.10;99.90;;;;;;4993594;28;20325;-69
2021/12/06 07:37:16;;;;;;;41.28;24.45;;;2.10;99.90;;;;;;4992481;28;20043;-69
2021/12/06 07:39:41;;;;;;;38.55;21.92;;;2.10;99.90;;;;;;4993212;28;20037;-69
2021/12/06 07:42:11;;;;;;;44.53;23.67;;;2.20;99.90;;;;;;4996275;28;20022;-69
2021/12/06 07:44:37;;;;;;;37.03;22.20;;;2.20;99.90;;;;;;5012898;28;20030;-68
2021/12/06 07:47:03;;;;;;;40.35;24.45;;;2.20;99.90;;;;;;5013248;28;20045;-69
2021/12/06 07:49:29;;;;;;;38.85;21.52;;;2.20;99.90;;;;;;5012172;28;20364;-69
2021/12/06 07:51:55;;;;;;;41.00;22.42;;;2.10;99.90;;;;;;5012411;28;20034;-69
2021/12/06 07:54:20;;;;;;;41.38;23.60;;;2.20;99.90;;;;;;5011752;28;20026;-69
2021/12/06 07:56:47;;;;;;;38.08;22.67;;;2.10;99.90;;;;;;5012603;28;20436;-70
2021/12/06 07:59:13;;;;;;;39.67;23.75;;;2.20;99.90;;;;;;4999728;28;20026;-69
2021/12/06 08:01:40;;;;;;;38.63;22.38;;;2.20;99.90;;;;;;4992907;28;20061;-69
2021/12/06 08:04:06;;;;;;;34.92;20.75;;;2.20;99.90;;;;;;4992144;28;20027;-70
2021/12/06 08:06:32;;;;;;;38.08;21.60;;;2.20;99.90;;;;;;4992565;28;20459;-69
2021/12/06 08:08:58;;;;;;;39.97;21.17;;;2.20;99.90;;;;;;4992269;28;20031;-70
2021/12/06 08:11:25;;;;;;;35.33;20.80;;;2.30;99.90;;;;;;4992183;28;20034;-69
2021/12/06 08:13:56;;;;;;;36.22;21.42;;;2.40;99.90;;;;;;4991823;28;20088;-70
2021/12/06 08:16:34;;;;;;;33.78;20.70;;;2.40;99.90;;;;;;4991793;28;20422;-68
2021/12/06 08:19:00;;;;;;;36.55;21.08;;;2.40;99.90;;;;;;4992631;28;20030;-69
2021/12/06 08:21:27;;;;;;;38.47;20.05;;;2.40;99.90;;;;;;4995315;28;20056;-69
2021/12/06 08:23:55;;;;;;;31.48;18.35;;;2.40;99.90;;;;;;5011238;28;20064;-69
2021/12/06 08:26:22;;;;;;;33.33;20.13;;;2.50;99.90;;;;;;5010591;28;20449;-69
2021/12/06 08:28:49;;;;;;;31.92;19.27;;;2.50;99.90;;;;;;5012107;28;20026;-69
2021/12/06 08:31:18;;;;;;;31.58;18.67;;;2.60;99.90;;;;;;5010602;28;20026;-68
2021/12/06 08:33:45;;;;;;;34.88;19.23;;;2.60;99.90;;;;;;5010950;28;20486;-69
2021/12/06 08:36:12;;;;;;;30.33;18.48;;;2.60;99.90;;;;;;5011120;28;20398;-68
2021/12/06 08:38:39;;;;;;;32.15;19.27;;;2.80;99.90;;;;;;5011879;28;20030;-69
2021/12/06 08:41:08;;;;;;;33.40;18.63;;;2.90;99.90;;;;;;5012158;28;20109;-68
2021/12/06 08:43:34;;;;;;;27.20;17.33;;;2.90;99.90;;;;;;5011835;28;20033;-69
2021/12/06 08:46:07;;;;;;;25.98;16.90;;;2.90;99.90;;;;;;5011935;28;20379;-68
2021/12/06 08:48:35;;;;;;;26.88;17.10;;;2.90;99.90;;;;;;5011071;28;20037;-69
2021/12/06 08:51:05;;;;;;;30.30;17.40;;;3.00;99.90;;;;;;5011573;28;20486;-69
2021/12/06 08:53:32;;;;;;;27.05;16.58;;;3.00;99.90;;;;;;5009074;28;20030;-68
2021/12/06 08:55:57;;;;;;;24.90;16.38;;;3.10;99.90;;;;;;5011783;28;20030;-69
2021/12/06 08:58:23;;;;;;;28.60;16.33;;;3.10;99.90;;;;;;5005409;28;20118;-68
2021/12/06 09:00:49;;;;;;;26.33;16.27;;;3.10;99.90;;;;;;4992112;28;20407;-69
2021/12/06 09:03:15;;;;;;;24.95;16.70;;;3.10;99.90;;;;;;4991227;28;20523;-69
2021/12/06 09:05:45;;;;;;;24.23;14.82;;;3.20;99.90;;;;;;4991656;28;20102;-68
2021/12/06 09:08:11;;;;;;;23.98;15.50;;;3.30;99.90;;;;;;4991171;28;20038;-69
2021/12/06 09:10:37;;;;;;;24.48;16.08;;;3.40;99.90;;;;;;4992815;28;20030;-68
2021/12/06 09:13:04;;;;;;;23.42;14.80;;;3.40;99.90;;;;;;4992017;28;20030;-68
2021/12/06 09:15:31;;;;;;;24.65;15.07;;;3.40;99.90;;;;;;4990887;28;20068;-69
2021/12/06 09:17:58;;;;;;;23.88;14.85;;;3.50;99.90;;;;;;5000560;28;20033;-69
2021/12/06 09:20:28;;;;;;;26.50;14.63;;;3.50;99.90;;;;;;5011806;28;20032;-68
2021/12/06 09:22:54;;;;;;;25.33;13.50;;;3.60;99.90;;;;;;5014647;28;20075;-68
2021/12/06 09:25:20;;;;;;;24.98;14.90;;;3.70;99.90;;;;;;5014403;28;20030;-69
2021/12/06 09:27:47;;;;;;;24.35;14.98;;;3.80;99.90;;;;;;5015036;28;20037;-69
2021/12/06 09:30:19;;;;;;;24.08;13.07;;;3.80;99.90;;;;;;5014468;28;20429;-69
2021/12/06 09:32:46;;;;;;;22.40;13.40;;;4.00;99.90;;;;;;5015277;28;20049;-69
2021/12/06 09:35:17;;;;;;;25.33;14.85;;;4.10;99.90;;;;;;5012199;28;20030;-69
2021/12/06 09:37:43;;;;;;;21.05;13.63;;;4.20;99.90;;;;;;5015211;28;20116;-69
2021/12/06 09:40:11;;;;;;;22.65;13.43;;;4.10;99.90;;;;;;5014773;28;20093;-69
2021/12/06 09:42:37;;;;;;;21.35;13.65;;;4.10;99.90;;;;;;5013592;28;20040;-69
2021/12/06 09:45:09;;;;;;;22.52;14.27;;;4.10;99.90;;;;;;5025167;28;20045;-69
2021/12/06 09:47:35;;;;;;;25.15;15.50;;;4.20;99.90;;;;;;5034278;28;20021;-68
2021/12/06 09:50:01;;;;;;;26.95;16.67;;;4.20;99.90;;;;;;5035537;28;20056;-69
2021/12/06 09:52:26;;;;;;;25.30;14.98;;;4.20;99.90;;;;;;5033984;28;20621;-69
2021/12/06 09:54:52;;;;;;;27.27;15.40;;;4.20;99.90;;;;;;5034667;28;20034;-69
2021/12/06 09:57:18;;;;;;;26.73;15.65;;;4.20;99.90;;;;;;5033967;28;20026;-69
2021/12/06 09:59:45;;;;;;;26.83;15.95;;;4.20;99.90;;;;;;5017836;28;20061;-69
2021/12/06 10:02:16;;;;;;;24.55;14.55;;;4.30;99.90;;;;;;5013729;28;20422;-69
2021/12/06 10:04:49;;;;;;;23.52;14.70;;;4.30;99.90;;;;;;5013028;28;20533;-69
2021/12/06 10:07:15;;;;;;;27.35;15.23;;;4.40;99.90;;;;;;5013748;28;20113;-70
2021/12/06 10:09:42;;;;;;;25.33;15.52;;;4.30;99.90;;;;;;5014456;28;20030;-69
2021/12/06 10:12:10;;;;;;;23.73;14.30;;;4.40;99.90;;;;;;5013823;28;20052;-69
2021/12/06 10:14:37;;;;;;;25.90;14.90;;;4.40;99.90;;;;;;5014154;28;20041;-69
2021/12/06 10:17:07;;;;;;;26.13;14.70;;;4.40;99.90;;;;;;5014390;28;20036;-68
2021/12/06 10:19:33;;;;;;;24.27;15.23;;;4.40;99.90;;;;;;5013689;28;20462;-69
2021/12/06 10:21:59;;;;;;;24.55;14.38;;;4.30;99.90;;;;;;5014050;28;20045;-68
2021/12/06 10:24:28;;;;;;;21.98;13.05;;;4.40;99.90;;;;;;5012229;28;20022;-68
2021/12/06 10:27:04;;;;;;;22.13;12.35;;;4.40;99.90;;;;;;5013504;28;20022;-68
2021/12/06 10:29:47;;;;;;;20.30;12.70;;;4.30;99.90;;;;;;5012274;28;20034;-69
2021/12/06 10:32:24;;;;;;;18.98;12.00;;;4.30;99.90;;;;;;5013133;28;20026;-69
2021/12/06 10:35:04;;;;;;;21.95;13.30;;;4.20;99.90;;;;;;5013868;28;20490;-69
2021/12/06 10:37:37;;;;;;;21.23;13.00;;;4.20;99.90;;;;;;5013126;28;20045;-69
2021/12/06 10:40:10;;;;;;;23.55;12.98;;;4.10;99.90;;;;;;5014046;28;20109;-69
2021/12/06 10:42:40;;;;;;;20.90;12.43;;;4.20;99.90;;;;;;5013700;28;20034;-69
2021/12/06 10:45:11;;;;;;;18.38;10.90;;;4.20;99.90;;;;;;5013457;28;20050;-69
2021/12/06 10:47:38;;;;;;;17.80;10.02;;;4.30;99.90;;;;;;5013280;28;20034;-69
2021/12/06 10:50:15;;;;;;;21.83;12.10;;;4.40;99.90;;;;;;5013749;28;20037;-69
2021/12/06 10:52:56;;;;;;;18.50;9.77;;;4.50;99.90;;;;;;5013435;28;20564;-69
2021/12/06 10:55:24;;;;;;;15.95;9.35;;;4.70;99.90;;;;;;5012786;28;20056;-69
2021/12/06 10:57:54;;;;;;;16.70;9.40;;;4.80;99.90;;;;;;5012851;28;20029;-69
2021/12/06 11:00:34;;;;;;;30.88;14.15;;;4.90;99.90;;;;;;5001335;28;20065;-69
2021/12/06 11:03:01;;;;;;;32.60;15.80;;;5.10;99.90;;;;;;5013364;28;20091;-69
2021/12/06 11:05:30;;;;;;;49.60;23.00;;;5.10;99.90;;;;;;5012860;28;20382;-69
2021/12/06 11:08:17;;;;;;;17.13;9.35;;;5.10;99.90;;;;;;5013354;28;20025;-69
2021/12/06 11:10:49;;;;;;;15.32;8.50;;;5.10;99.90;;;;;;5012893;28;20498;-69
2021/12/06 11:13:20;;;;;;;14.35;7.53;;;5.10;99.90;;;;;;5013669;28;20384;-69
2021/12/06 11:16:03;;;;;;;15.13;7.85;;;5.20;99.90;;;;;;5013259;28;20556;-69
2021/12/06 11:18:38;;;;;;;11.15;6.63;;;5.20;99.90;;;;;;5012235;28;20034;-69
2021/12/06 11:21:26;;;;;;;17.40;7.00;;;5.20;99.90;;;;;;5012916;28;20383;-69
2021/12/06 11:24:07;;;;;;;16.73;7.38;;;5.20;99.90;;;;;;5012257;28;20049;-69
2021/12/06 11:26:35;;;;;;;11.32;5.95;;;5.30;99.90;;;;;;5012307;28;20022;-70
2021/12/06 11:29:15;;;;;;;10.52;6.13;;;5.30;99.90;;;;;;5012025;28;20037;-69
2021/12/06 11:31:47;;;;;;;57.45;24.67;;;5.30;99.90;;;;;;5012550;28;20030;-69
2021/12/06 11:34:15;;;;;;;15.60;6.97;;;5.40;99.90;;;;;;5011969;28;20072;-69
2021/12/06 11:36:42;;;;;;;11.20;5.38;;;5.40;99.90;;;;;;5012688;28;20036;-69
2021/12/06 11:39:15;;;;;;;13.35;5.75;;;5.50;99.90;;;;;;5012273;28;20063;-69
2021/12/06 11:41:45;;;;;;;10.82;6.13;;;5.60;99.90;;;;;;5008789;28;20772;-69
2021/12/06 11:44:26;;;;;;;11.48;6.30;;;5.60;99.90;;;;;;5032531;28;20045;-68
2021/12/06 11:46:58;;;;;;;8.63;5.25;;;5.60;99.90;;;;;;5032533;28;20085;-69
2021/12/06 11:49:54;;;;;;;7.75;5.10;;;5.70;99.90;;;;;;5032067;28;20502;-69
2021/12/06 11:52:28;;;;;;;9.13;4.80;;;5.80;99.90;;;;;;5015188;28;20045;-69
2021/12/06 11:54:57;;;;;;;11.23;5.60;;;5.80;99.90;;;;;;5032583;28;20030;-68
2021/12/06 11:57:29;;;;;;;7.43;4.88;;;5.90;99.90;;;;;;5031627;28;20024;-68
2021/12/06 12:00:12;;;;;;;8.68;4.93;;;5.90;99.90;;;;;;5014385;28;20026;-69
2021/12/06 12:02:41;;;;;;;7.38;4.32;;;5.90;99.90;;;;;;5012125;28;20033;-69
2021/12/06 12:05:37;;;;;;;9.20;4.50;;;5.90;99.90;;;;;;5012463;28;20493;-69
2021/12/06 12:08:11;;;;;;;8.43;4.75;;;5.90;99.90;;;;;;5012410;28;20030;-69
2021/12/06 12:10:50;;;;;;;6.97;4.85;;;6.00;99.90;;;;;;5011460;28;20930;-69
2021/12/06 12:13:35;;;;;;;8.23;4.97;;;6.20;99.90;;;;;;5011742;28;20030;-71
2021/12/06 12:16:08;;;;;;;7.50;5.07;;;6.40;99.90;;;;;;5011017;28;20078;-69
2021/12/06 12:18:37;;;;;;;11.95;5.82;;;6.60;99.90;;;;;;5012278;28;20029;-69
2021/12/06 12:21:05;;;;;;;13.70;6.50;;;6.70;99.90;;;;;;5012402;28;20053;-69
2021/12/06 12:23:32;;;;;;;7.45;4.68;;;6.90;99.90;;;;;;5009025;28;20030;-69
2021/12/06 12:26:12;;;;;;;14.63;5.25;;;7.00;99.90;;;;;;5014218;28;20025;-69
2021/12/06 12:28:50;;;;;;;8.38;4.60;;;7.00;99.90;;;;;;5011823;28;20065;-69
2021/12/06 12:31:22;;;;;;;7.03;3.67;;;6.90;99.90;;;;;;5017956;28;20135;-69
2021/12/06 12:33:48;;;;;;;7.30;4.70;;;6.80;99.90;;;;;;5031369;28;20445;-68
2021/12/06 12:36:21;;;;;;;7.65;4.20;;;6.80;99.90;;;;;;5031896;28;20116;-68
2021/12/06 12:38:54;;;;;;;8.40;4.20;;;6.70;99.90;;;;;;5031328;28;20026;-69
2021/12/06 12:41:22;;;;;;;9.75;4.30;;;6.70;99.90;;;;;;5027827;28;20039;-68
2021/12/06 12:43:54;;;;;;;9.30;4.53;;;6.60;99.90;;;;;;4992556;28;20037;-68
2021/12/06 12:46:40;;;;;;;6.38;3.80;;;6.50;99.90;;;;;;4991365;28;20515;-68
2021/12/06 12:49:18;;;;;;;8.70;5.03;;;6.50;99.90;;;;;;4991842;28;20030;-70
2021/12/06 12:51:53;;;;;;;8.90;5.95;;;6.40;99.90;;;;;;4992256;28;20030;-68
2021/12/06 12:54:28;;;;;;;8.45;5.38;;;6.30;99.90;;;;;;4991328;28;20073;-69
2021/12/06 12:56:57;;;;;;;8.23;5.63;;;6.30;99.90;;;;;;4995670;28;20073;-69
2021/12/06 12:59:47;;;;;;;12.77;5.95;;;6.10;99.90;;;;;;4995439;28;20030;-70
2021/12/06 13:02:20;;;;;;;7.78;5.13;;;6.00;99.90;;;;;;5007409;28;20038;-69
2021/12/06 13:04:58;;;;;;;9.13;5.45;;;5.80;99.90;;;;;;5015709;28;20104;-69
2021/12/06 13:07:31;;;;;;;9.85;5.30;;;5.70;99.90;;;;;;5014680;28;20021;-69